sensor_id;sensor_type;location;lat;lon;timestamp;temperature;humidity
21834;DHT22;11079;51.092;3.458;2022-09-25T00:00:42;12.60;99.90
21834;DHT22;11079;51.092;3.458;2022-09-25T00:03:09;12.60;99.90
21834;DHT22;11079;51.092;3.458;2022-09-25T00:05:36;12.50;99.90
21834;DHT22;11079;51.092;3.458;2022-09-25T00:08:03;12.50;99.90
21834;DHT22;11079;51.092;3.458;2022-09-25T00:10:30;12.50;99.90
21834;DHT22;11079;51.092;3.458;2022-09-25T00:12:56;12.40;99.90
21834;DHT22;11079;51.092;3.458;2022-09-25T00:15:22;12.40;99.90
21834;DHT22;11079;51.092;3.458;2022-09-25T00:17:47;12.40;99.90
21834;DHT22;11079;51.092;3.458;2022-09-25T00:20:16;12.50;99.90
21834;DHT22;11079;51.092;3.458;2022-09-25T00:22:42;12.40;99.90
21834;DHT22;11079;51.092;3.458;2022-09-25T00:25:12;12.40;99.90
21834;DHT22;11079;51.092;3.458;2022-09-25T00:27:39;12.40;99.90
21834;DHT22;11079;51.092;3.458;2022-09-25T00:30:05;12.40;99.90
21834;DHT22;11079;51.092;3.458;2022-09-25T00:32:31;12.30;99.90
21834;DHT22;11079;51.092;3.458;2022-09-25T00:34:57;12.30;99.90
21834;DHT22;11079;51.092;3.458;2022-09-25T00:37:22;12.30;99.90
21834;DHT22;11079;51.092;3.458;2022-09-25T00:39:48;12.30;99.90
21834;DHT22;11079;51.092;3.458;2022-09-25T00:42:18;12.30;99.90
21834;DHT22;11079;51.092;3.458;2022-09-25T00:44:58;12.20;99.90
21834;DHT22;11079;51.092;3.458;2022-09-25T00:47:51;12.20;99.90
21834;DHT22;11079;51.092;3.458;2022-09-25T00:53:04;12.20;99.90
21834;DHT22;11079;51.092;3.458;2022-09-25T00:55:32;12.30;99.90
21834;DHT22;11079;51.092;3.458;2022-09-25T00:57:59;12.30;99.90
21834;DHT22;11079;51.092;3.458;2022-09-25T01:00:27;12.30;99.90
21834;DHT22;11079;51.092;3.458;2022-09-25T01:02:53;12.30;99.90
21834;DHT22;11079;51.092;3.458;2022-09-25T01:05:31;12.20;99.90
21834;DHT22;11079;51.092;3.458;2022-09-25T01:07:59;12.30;99.90
21834;DHT22;11079;51.092;3.458;2022-09-25T01:10:26;12.40;99.90
21834;DHT22;11079;51.092;3.458;2022-09-25T01:12:53;12.50;99.90
21834;DHT22;11079;51.092;3.458;2022-09-25T01:15:27;12.40;99.90
21834;DHT22;11079;51.092;3.458;2022-09-25T01:17:59;12.50;99.90
21834;DHT22;11079;51.092;3.458;2022-09-25T01:20:42;12.50;99.90
21834;DHT22;11079;51.092;3.458;2022-09-25T01:23:24;12.60;99.90
21834;DHT22;11079;51.092;3.458;2022-09-25T01:31:38;12.50;99.90
21834;DHT22;11079;51.092;3.458;2022-09-25T01:37:31;12.50;99.90
21834;DHT22;11079;51.092;3.458;2022-09-25T01:40:14;12.50;99.90
21834;DHT22;11079;51.092;3.458;2022-09-25T01:42:47;12.50;99.90
21834;DHT22;11079;51.092;3.458;2022-09-25T01:45:19;12.60;99.90
21834;DHT22;11079;51.092;3.458;2022-09-25T01:47:48;12.60;99.90
21834;DHT22;11079;51.092;3.458;2022-09-25T01:50:19;12.70;99.90
21834;DHT22;11079;51.092;3.458;2022-09-25T01:52:52;12.60;99.90
21834;DHT22;11079;51.092;3.458;2022-09-25T01:55:27;12.60;99.90
21834;DHT22;11079;51.092;3.458;2022-09-25T01:58:01;12.50;99.90
21834;DHT22;11079;51.092;3.458;2022-09-25T02:00:28;12.50;99.90
21834;DHT22;11079;51.092;3.458;2022-09-25T02:02:58;12.50;99.90
21834;DHT22;11079;51.092;3.458;2022-09-25T02:08:16;12.40;99.90
21834;DHT22;11079;51.092;3.458;2022-09-25T02:10:52;12.30;99.90
21834;DHT22;11079;51.092;3.458;2022-09-25T02:13:20;12.20;99.90
21834;DHT22;11079;51.092;3.458;2022-09-25T02:15:52;12.20;99.90
21834;DHT22;11079;51.092;3.458;2022-09-25T02:18:20;12.10;99.90
21834;DHT22;11079;51.092;3.458;2022-09-25T02:23:57;12.00;99.90
21834;DHT22;11079;51.092;3.458;2022-09-25T02:26:28;11.90;99.90
21834;DHT22;11079;51.092;3.458;2022-09-25T02:28:54;11.90;99.90
21834;DHT22;11079;51.092;3.458;2022-09-25T02:31:27;11.80;99.90
21834;DHT22;11079;51.092;3.458;2022-09-25T02:33:56;11.80;99.90
21834;DHT22;11079;51.092;3.458;2022-09-25T02:36:22;12.00;99.90
21834;DHT22;11079;51.092;3.458;2022-09-25T02:38:49;11.80;99.90
21834;DHT22;11079;51.092;3.458;2022-09-25T02:47:01;11.80;99.90
21834;DHT22;11079;51.092;3.458;2022-09-25T02:49:37;11.80;99.90
21834;DHT22;11079;51.092;3.458;2022-09-25T02:52:05;11.80;99.90
21834;DHT22;11079;51.092;3.458;2022-09-25T02:54:44;11.70;99.90
21834;DHT22;11079;51.092;3.458;2022-09-25T02:57:27;11.80;99.90
21834;DHT22;11079;51.092;3.458;2022-09-25T02:59:58;11.80;99.90
21834;DHT22;11079;51.092;3.458;2022-09-25T03:02:26;11.70;99.90
21834;DHT22;11079;51.092;3.458;2022-09-25T03:04:53;11.60;99.90
21834;DHT22;11079;51.092;3.458;2022-09-25T03:07:19;11.50;99.90
21834;DHT22;11079;51.092;3.458;2022-09-25T03:09:47;11.50;99.90
21834;DHT22;11079;51.092;3.458;2022-09-25T03:12:14;11.50;99.90
21834;DHT22;11079;51.092;3.458;2022-09-25T03:14:40;11.30;99.90
21834;DHT22;11079;51.092;3.458;2022-09-25T03:17:06;11.30;99.90
21834;DHT22;11079;51.092;3.458;2022-09-25T03:19:34;11.30;99.90
21834;DHT22;11079;51.092;3.458;2022-09-25T03:22:00;11.30;99.90
21834;DHT22;11079;51.092;3.458;2022-09-25T03:24:26;11.20;99.90
21834;DHT22;11079;51.092;3.458;2022-09-25T03:26:52;11.10;99.90
21834;DHT22;11079;51.092;3.458;2022-09-25T03:29:19;11.10;99.90
21834;DHT22;11079;51.092;3.458;2022-09-25T03:31:45;11.30;99.90
21834;DHT22;11079;51.092;3.458;2022-09-25T03:34:14;11.40;99.90
21834;DHT22;11079;51.092;3.458;2022-09-25T03:36:40;11.60;99.90
21834;DHT22;11079;51.092;3.458;2022-09-25T03:39:06;11.60;99.90
21834;DHT22;11079;51.092;3.458;2022-09-25T03:41:35;11.30;99.90
21834;DHT22;11079;51.092;3.458;2022-09-25T03:44:01;11.20;99.90
21834;DHT22;11079;51.092;3.458;2022-09-25T03:46:29;11.20;99.90
21834;DHT22;11079;51.092;3.458;2022-09-25T03:48:56;11.10;99.90
21834;DHT22;11079;51.092;3.458;2022-09-25T03:51:24;11.10;99.90
21834;DHT22;11079;51.092;3.458;2022-09-25T03:53:50;11.00;99.90
21834;DHT22;11079;51.092;3.458;2022-09-25T03:56:19;10.90;99.90
21834;DHT22;11079;51.092;3.458;2022-09-25T03:58:46;10.90;99.90
21834;DHT22;11079;51.092;3.458;2022-09-25T04:01:13;10.90;99.90
21834;DHT22;11079;51.092;3.458;2022-09-25T04:03:39;11.00;99.90
21834;DHT22;11079;51.092;3.458;2022-09-25T04:06:06;11.00;99.90
21834;DHT22;11079;51.092;3.458;2022-09-25T04:08:34;11.00;99.90
21834;DHT22;11079;51.092;3.458;2022-09-25T04:11:01;11.10;99.90
21834;DHT22;11079;51.092;3.458;2022-09-25T04:13:29;11.30;99.90
21834;DHT22;11079;51.092;3.458;2022-09-25T04:15:56;11.70;99.90
21834;DHT22;11079;51.092;3.458;2022-09-25T04:18:23;12.00;99.90
21834;DHT22;11079;51.092;3.458;2022-09-25T04:20:49;12.00;99.90
21834;DHT22;11079;51.092;3.458;2022-09-25T04:23:16;12.20;99.90
21834;DHT22;11079;51.092;3.458;2022-09-25T04:25:42;12.30;99.90
21834;DHT22;11079;51.092;3.458;2022-09-25T04:28:09;12.40;99.90
21834;DHT22;11079;51.092;3.458;2022-09-25T04:30:35;12.40;99.90
21834;DHT22;11079;51.092;3.458;2022-09-25T04:33:01;12.10;99.90
21834;DHT22;11079;51.092;3.458;2022-09-25T04:35:46;11.90;99.90
21834;DHT22;11079;51.092;3.458;2022-09-25T04:38:11;12.10;99.90
21834;DHT22;11079;51.092;3.458;2022-09-25T04:40:37;12.10;99.90
21834;DHT22;11079;51.092;3.458;2022-09-25T04:43:04;11.90;99.90
21834;DHT22;11079;51.092;3.458;2022-09-25T04:45:35;11.80;99.90
21834;DHT22;11079;51.092;3.458;2022-09-25T04:48:01;11.90;99.90
21834;DHT22;11079;51.092;3.458;2022-09-25T04:50:28;12.00;99.90
21834;DHT22;11079;51.092;3.458;2022-09-25T04:52:56;11.90;99.90
21834;DHT22;11079;51.092;3.458;2022-09-25T04:55:22;12.00;99.90
21834;DHT22;11079;51.092;3.458;2022-09-25T04:58:00;11.90;99.90
21834;DHT22;11079;51.092;3.458;2022-09-25T05:00:29;11.80;99.90
21834;DHT22;11079;51.092;3.458;2022-09-25T05:02:55;11.70;99.90
21834;DHT22;11079;51.092;3.458;2022-09-25T05:05:21;11.80;99.90
21834;DHT22;11079;51.092;3.458;2022-09-25T05:07:51;11.80;99.90
21834;DHT22;11079;51.092;3.458;2022-09-25T05:10:19;11.90;99.90
21834;DHT22;11079;51.092;3.458;2022-09-25T05:12:45;12.00;99.90
21834;DHT22;11079;51.092;3.458;2022-09-25T05:15:12;12.10;99.90
21834;DHT22;11079;51.092;3.458;2022-09-25T05:17:38;12.00;99.90
21834;DHT22;11079;51.092;3.458;2022-09-25T05:20:03;12.10;99.90
21834;DHT22;11079;51.092;3.458;2022-09-25T05:22:29;12.10;99.90
21834;DHT22;11079;51.092;3.458;2022-09-25T05:24:55;12.10;99.90
21834;DHT22;11079;51.092;3.458;2022-09-25T05:27:20;12.10;99.90
21834;DHT22;11079;51.092;3.458;2022-09-25T05:29:49;12.20;99.90
21834;DHT22;11079;51.092;3.458;2022-09-25T05:32:15;12.20;99.90
21834;DHT22;11079;51.092;3.458;2022-09-25T05:34:41;12.20;99.90
21834;DHT22;11079;51.092;3.458;2022-09-25T05:37:07;12.10;99.90
21834;DHT22;11079;51.092;3.458;2022-09-25T05:39:32;12.20;99.90
21834;DHT22;11079;51.092;3.458;2022-09-25T05:41:58;12.20;99.90
21834;DHT22;11079;51.092;3.458;2022-09-25T05:44:24;12.10;99.90
21834;DHT22;11079;51.092;3.458;2022-09-25T05:46:53;12.10;99.90
21834;DHT22;11079;51.092;3.458;2022-09-25T05:49:21;12.00;99.90
21834;DHT22;11079;51.092;3.458;2022-09-25T05:51:47;12.00;99.90
21834;DHT22;11079;51.092;3.458;2022-09-25T05:54:13;12.00;99.90
21834;DHT22;11079;51.092;3.458;2022-09-25T05:56:38;12.10;99.90
21834;DHT22;11079;51.092;3.458;2022-09-25T05:59:04;12.10;99.90
21834;DHT22;11079;51.092;3.458;2022-09-25T06:01:30;12.30;99.90
21834;DHT22;11079;51.092;3.458;2022-09-25T06:03:55;12.70;99.90
21834;DHT22;11079;51.092;3.458;2022-09-25T06:06:21;13.10;99.90
21834;DHT22;11079;51.092;3.458;2022-09-25T06:08:46;13.40;99.90
21834;DHT22;11079;51.092;3.458;2022-09-25T06:11:12;13.60;99.90
21834;DHT22;11079;51.092;3.458;2022-09-25T06:13:38;13.80;99.90
21834;DHT22;11079;51.092;3.458;2022-09-25T06:16:04;13.90;99.90
21834;DHT22;11079;51.092;3.458;2022-09-25T06:18:45;14.30;99.90
21834;DHT22;11079;51.092;3.458;2022-09-25T06:21:13;15.00;99.90
21834;DHT22;11079;51.092;3.458;2022-09-25T06:23:40;15.90;99.90
21834;DHT22;11079;51.092;3.458;2022-09-25T06:26:07;17.20;99.90
21834;DHT22;11079;51.092;3.458;2022-09-25T06:28:34;18.50;99.90
21834;DHT22;11079;51.092;3.458;2022-09-25T06:31:10;19.80;99.90
21834;DHT22;11079;51.092;3.458;2022-09-25T06:33:36;21.10;99.90
21834;DHT22;11079;51.092;3.458;2022-09-25T06:36:15;22.30;99.90
21834;DHT22;11079;51.092;3.458;2022-09-25T06:38:41;23.10;99.90
21834;DHT22;11079;51.092;3.458;2022-09-25T06:41:07;23.80;99.90
21834;DHT22;11079;51.092;3.458;2022-09-25T06:43:32;24.10;99.90
21834;DHT22;11079;51.092;3.458;2022-09-25T06:46:03;24.50;99.90
21834;DHT22;11079;51.092;3.458;2022-09-25T06:48:31;24.60;99.90
21834;DHT22;11079;51.092;3.458;2022-09-25T06:50:57;24.60;99.90
21834;DHT22;11079;51.092;3.458;2022-09-25T06:53:26;24.60;99.90
21834;DHT22;11079;51.092;3.458;2022-09-25T06:56:00;25.10;99.90
21834;DHT22;11079;51.092;3.458;2022-09-25T06:58:29;25.80;99.90
21834;DHT22;11079;51.092;3.458;2022-09-25T07:00:55;26.50;99.90
21834;DHT22;11079;51.092;3.458;2022-09-25T07:03:21;27.40;99.90
21834;DHT22;11079;51.092;3.458;2022-09-25T07:06:36;28.30;99.90
21834;DHT22;11079;51.092;3.458;2022-09-25T07:09:02;29.40;99.90
21834;DHT22;11079;51.092;3.458;2022-09-25T07:11:28;30.20;99.90
21834;DHT22;11079;51.092;3.458;2022-09-25T07:13:56;30.60;99.90
21834;DHT22;11079;51.092;3.458;2022-09-25T07:16:24;31.00;99.70
21834;DHT22;11079;51.092;3.458;2022-09-25T07:18:53;29.70;99.60
21834;DHT22;11079;51.092;3.458;2022-09-25T07:21:21;28.10;99.90
21834;DHT22;11079;51.092;3.458;2022-09-25T07:23:48;26.50;99.90
21834;DHT22;11079;51.092;3.458;2022-09-25T07:26:20;25.30;99.90
21834;DHT22;11079;51.092;3.458;2022-09-25T07:28:58;24.00;99.90
21834;DHT22;11079;51.092;3.458;2022-09-25T07:31:27;22.50;99.90
21834;DHT22;11079;51.092;3.458;2022-09-25T07:33:53;20.80;99.90
21834;DHT22;11079;51.092;3.458;2022-09-25T07:36:19;19.60;99.90
21834;DHT22;11079;51.092;3.458;2022-09-25T07:38:50;18.50;99.90
21834;DHT22;11079;51.092;3.458;2022-09-25T07:41:17;18.20;99.90
21834;DHT22;11079;51.092;3.458;2022-09-25T07:43:43;17.90;99.90
21834;DHT22;11079;51.092;3.458;2022-09-25T07:46:10;17.30;99.90
21834;DHT22;11079;51.092;3.458;2022-09-25T07:48:36;17.20;99.90
21834;DHT22;11079;51.092;3.458;2022-09-25T07:51:07;17.10;99.90
21834;DHT22;11079;51.092;3.458;2022-09-25T07:53:56;17.20;99.90
21834;DHT22;11079;51.092;3.458;2022-09-25T07:56:22;16.90;99.90
21834;DHT22;11079;51.092;3.458;2022-09-25T07:58:47;16.70;99.90
21834;DHT22;11079;51.092;3.458;2022-09-25T08:01:23;16.50;99.90
21834;DHT22;11079;51.092;3.458;2022-09-25T08:03:49;16.30;99.90
21834;DHT22;11079;51.092;3.458;2022-09-25T08:06:15;16.00;99.90
21834;DHT22;11079;51.092;3.458;2022-09-25T08:09:01;15.80;99.90
21834;DHT22;11079;51.092;3.458;2022-09-25T08:11:33;15.70;99.90
21834;DHT22;11079;51.092;3.458;2022-09-25T08:13:58;15.40;99.90
21834;DHT22;11079;51.092;3.458;2022-09-25T08:16:24;15.20;99.90
21834;DHT22;11079;51.092;3.458;2022-09-25T08:18:50;15.10;99.90
21834;DHT22;11079;51.092;3.458;2022-09-25T08:21:21;15.30;99.90
21834;DHT22;11079;51.092;3.458;2022-09-25T08:23:54;15.60;99.90
21834;DHT22;11079;51.092;3.458;2022-09-25T08:26:21;15.40;99.90
21834;DHT22;11079;51.092;3.458;2022-09-25T08:29:14;15.60;99.90
21834;DHT22;11079;51.092;3.458;2022-09-25T08:31:42;15.90;99.90
21834;DHT22;11079;51.092;3.458;2022-09-25T08:34:09;16.00;99.90
21834;DHT22;11079;51.092;3.458;2022-09-25T08:36:35;16.20;99.90
21834;DHT22;11079;51.092;3.458;2022-09-25T08:39:00;16.40;99.90
21834;DHT22;11079;51.092;3.458;2022-09-25T08:41:30;16.80;99.90
21834;DHT22;11079;51.092;3.458;2022-09-25T08:54:04;18.60;99.90
21834;DHT22;11079;51.092;3.458;2022-09-25T08:56:33;19.40;99.90
21834;DHT22;11079;51.092;3.458;2022-09-25T09:02:29;20.30;99.90
21834;DHT22;11079;51.092;3.458;2022-09-25T09:04:57;20.80;99.90
21834;DHT22;11079;51.092;3.458;2022-09-25T09:07:38;21.00;99.90
21834;DHT22;11079;51.092;3.458;2022-09-25T09:10:48;22.40;99.90
21834;DHT22;11079;51.092;3.458;2022-09-25T09:16:22;26.10;99.90
21834;DHT22;11079;51.092;3.458;2022-09-25T09:18:53;28.00;99.90
21834;DHT22;11079;51.092;3.458;2022-09-25T09:21:45;30.60;99.90
21834;DHT22;11079;51.092;3.458;2022-09-25T09:24:55;32.20;99.90
21834;DHT22;11079;51.092;3.458;2022-09-25T09:30:53;29.30;99.90
21834;DHT22;11079;51.092;3.458;2022-09-25T09:36:16;26.30;99.90
21834;DHT22;11079;51.092;3.458;2022-09-25T09:42:08;24.30;99.90
21834;DHT22;11079;51.092;3.458;2022-09-25T09:45:15;23.70;99.90
21834;DHT22;11079;51.092;3.458;2022-09-25T10:01:12;21.50;99.90
21834;DHT22;11079;51.092;3.458;2022-09-25T10:03:38;21.40;99.90
21834;DHT22;11079;51.092;3.458;2022-09-25T10:06:11;21.40;99.90
21834;DHT22;11079;51.092;3.458;2022-09-25T10:08:38;21.40;99.90
21834;DHT22;11079;51.092;3.458;2022-09-25T10:11:14;23.00;99.90
21834;DHT22;11079;51.092;3.458;2022-09-25T10:13:40;25.50;99.90
21834;DHT22;11079;51.092;3.458;2022-09-25T10:16:14;27.80;99.90
21834;DHT22;11079;51.092;3.458;2022-09-25T10:18:53;29.30;99.90
21834;DHT22;11079;51.092;3.458;2022-09-25T10:21:29;30.00;99.90
21834;DHT22;11079;51.092;3.458;2022-09-25T10:23:56;30.60;99.90
21834;DHT22;11079;51.092;3.458;2022-09-25T10:26:36;31.80;99.90
21834;DHT22;11079;51.092;3.458;2022-09-25T10:31:46;33.10;97.90
21834;DHT22;11079;51.092;3.458;2022-09-25T10:36:44;34.20;97.10
21834;DHT22;11079;51.092;3.458;2022-09-25T10:39:30;34.60;93.30
21834;DHT22;11079;51.092;3.458;2022-09-25T10:41:57;35.20;92.20
21834;DHT22;11079;51.092;3.458;2022-09-25T10:44:34;35.60;90.70
21834;DHT22;11079;51.092;3.458;2022-09-25T10:50:14;35.60;88.40
21834;DHT22;11079;51.092;3.458;2022-09-25T10:52:50;35.00;87.00
21834;DHT22;11079;51.092;3.458;2022-09-25T10:58:16;35.80;81.90
21834;DHT22;11079;51.092;3.458;2022-09-25T11:03:22;35.50;78.60
21834;DHT22;11079;51.092;3.458;2022-09-25T11:05:53;35.90;79.90
21834;DHT22;11079;51.092;3.458;2022-09-25T11:08:22;35.10;77.20
21834;DHT22;11079;51.092;3.458;2022-09-25T11:10:54;34.00;78.30
21834;DHT22;11079;51.092;3.458;2022-09-25T11:13:25;33.10;80.30
21834;DHT22;11079;51.092;3.458;2022-09-25T11:15:56;33.00;82.00
21834;DHT22;11079;51.092;3.458;2022-09-25T11:18:50;32.60;83.40
21834;DHT22;11079;51.092;3.458;2022-09-25T11:21:37;32.90;82.20
21834;DHT22;11079;51.092;3.458;2022-09-25T11:26:47;33.40;80.30
21834;DHT22;11079;51.092;3.458;2022-09-25T11:31:56;30.00;85.90
21834;DHT22;11079;51.092;3.458;2022-09-25T11:34:43;29.50;91.20
21834;DHT22;11079;51.092;3.458;2022-09-25T11:37:38;27.70;93.30
21834;DHT22;11079;51.092;3.458;2022-09-25T11:43:42;23.90;99.80
21834;DHT22;11079;51.092;3.458;2022-09-25T11:48:59;21.60;99.90
21834;DHT22;11079;51.092;3.458;2022-09-25T12:00:21;20.00;99.90
21834;DHT22;11079;51.092;3.458;2022-09-25T12:03:14;20.00;99.90
21834;DHT22;11079;51.092;3.458;2022-09-25T12:06:22;20.10;99.90
21834;DHT22;11079;51.092;3.458;2022-09-25T12:19:51;21.20;99.90
21834;DHT22;11079;51.092;3.458;2022-09-25T12:31:31;24.60;99.90
21834;DHT22;11079;51.092;3.458;2022-09-25T12:37:29;26.30;99.90
21834;DHT22;11079;51.092;3.458;2022-09-25T12:40:00;26.10;99.90
21834;DHT22;11079;51.092;3.458;2022-09-25T12:42:46;25.40;99.90
21834;DHT22;11079;51.092;3.458;2022-09-25T12:48:18;24.90;99.90
21834;DHT22;11079;51.092;3.458;2022-09-25T12:54:11;24.00;99.90
21834;DHT22;11079;51.092;3.458;2022-09-25T12:59:24;23.50;99.90
21834;DHT22;11079;51.092;3.458;2022-09-25T13:02:24;23.60;99.90
21834;DHT22;11079;51.092;3.458;2022-09-25T13:05:18;23.30;99.90
21834;DHT22;11079;51.092;3.458;2022-09-25T13:08:08;23.00;99.90
21834;DHT22;11079;51.092;3.458;2022-09-25T13:13:26;22.70;99.90
21834;DHT22;11079;51.092;3.458;2022-09-25T13:16:00;23.10;99.90
21834;DHT22;11079;51.092;3.458;2022-09-25T13:18:28;23.80;99.90
21834;DHT22;11079;51.092;3.458;2022-09-25T13:20:58;24.30;99.90
21834;DHT22;11079;51.092;3.458;2022-09-25T13:23:39;24.60;99.90
21834;DHT22;11079;51.092;3.458;2022-09-25T13:26:18;25.60;99.90
21834;DHT22;11079;51.092;3.458;2022-09-25T13:29:16;26.60;99.90
21834;DHT22;11079;51.092;3.458;2022-09-25T13:31:46;27.30;99.90
21834;DHT22;11079;51.092;3.458;2022-09-25T13:34:18;28.00;99.90
21834;DHT22;11079;51.092;3.458;2022-09-25T13:36:54;28.10;99.90
21834;DHT22;11079;51.092;3.458;2022-09-25T13:39:44;27.30;99.90
21834;DHT22;11079;51.092;3.458;2022-09-25T13:42:38;26.30;99.90
21834;DHT22;11079;51.092;3.458;2022-09-25T13:45:30;25.10;99.90
21834;DHT22;11079;51.092;3.458;2022-09-25T13:48:10;23.90;99.90
21834;DHT22;11079;51.092;3.458;2022-09-25T13:50:41;22.90;99.90
21834;DHT22;11079;51.092;3.458;2022-09-25T13:53:14;22.50;99.90
21834;DHT22;11079;51.092;3.458;2022-09-25T13:58:24;21.60;99.90
21834;DHT22;11079;51.092;3.458;2022-09-25T14:00:52;21.40;99.90
21834;DHT22;11079;51.092;3.458;2022-09-25T14:03:42;21.30;99.90
21834;DHT22;11079;51.092;3.458;2022-09-25T14:06:17;21.10;99.90
21834;DHT22;11079;51.092;3.458;2022-09-25T14:08:43;21.20;99.90
21834;DHT22;11079;51.092;3.458;2022-09-25T14:11:14;21.10;99.90
21834;DHT22;11079;51.092;3.458;2022-09-25T14:13:41;21.10;99.90
21834;DHT22;11079;51.092;3.458;2022-09-25T14:16:21;21.10;99.90
21834;DHT22;11079;51.092;3.458;2022-09-25T14:18:50;21.00;99.90
21834;DHT22;11079;51.092;3.458;2022-09-25T14:21:18;21.00;99.90
21834;DHT22;11079;51.092;3.458;2022-09-25T14:23:50;20.80;99.90
21834;DHT22;11079;51.092;3.458;2022-09-25T14:26:28;20.80;99.90
21834;DHT22;11079;51.092;3.458;2022-09-25T14:28:55;20.80;99.90
21834;DHT22;11079;51.092;3.458;2022-09-25T14:39:45;20.90;99.90
21834;DHT22;11079;51.092;3.458;2022-09-25T14:45:34;20.90;99.90
21834;DHT22;11079;51.092;3.458;2022-09-25T14:48:18;20.80;99.90
21834;DHT22;11079;51.092;3.458;2022-09-25T14:50:51;20.60;99.90
21834;DHT22;11079;51.092;3.458;2022-09-25T14:53:34;20.60;99.90
21834;DHT22;11079;51.092;3.458;2022-09-25T14:56:00;20.80;99.90
21834;DHT22;11079;51.092;3.458;2022-09-25T14:58:30;20.90;99.90
21834;DHT22;11079;51.092;3.458;2022-09-25T15:01:09;21.10;99.90
21834;DHT22;11079;51.092;3.458;2022-09-25T15:03:41;21.50;99.90
21834;DHT22;11079;51.092;3.458;2022-09-25T15:06:08;21.60;99.90
21834;DHT22;11079;51.092;3.458;2022-09-25T15:08:37;21.60;99.90
21834;DHT22;11079;51.092;3.458;2022-09-25T15:11:14;21.40;99.90
21834;DHT22;11079;51.092;3.458;2022-09-25T15:13:41;21.20;99.90
21834;DHT22;11079;51.092;3.458;2022-09-25T15:16:14;21.00;99.90
21834;DHT22;11079;51.092;3.458;2022-09-25T15:19:01;20.90;99.90
21834;DHT22;11079;51.092;3.458;2022-09-25T15:21:33;20.70;99.90
21834;DHT22;11079;51.092;3.458;2022-09-25T15:24:05;20.30;99.90
21834;DHT22;11079;51.092;3.458;2022-09-25T15:26:38;20.00;99.90
21834;DHT22;11079;51.092;3.458;2022-09-25T15:29:14;20.00;99.90
21834;DHT22;11079;51.092;3.458;2022-09-25T15:31:43;19.90;99.90
21834;DHT22;11079;51.092;3.458;2022-09-25T15:34:23;19.60;99.90
21834;DHT22;11079;51.092;3.458;2022-09-25T15:36:50;19.30;99.90
21834;DHT22;11079;51.092;3.458;2022-09-25T15:39:24;19.20;99.90
21834;DHT22;11079;51.092;3.458;2022-09-25T15:41:50;19.00;99.90
21834;DHT22;11079;51.092;3.458;2022-09-25T15:46:52;19.00;99.90
21834;DHT22;11079;51.092;3.458;2022-09-25T15:49:24;19.10;99.90
21834;DHT22;11079;51.092;3.458;2022-09-25T15:51:56;19.00;99.90
21834;DHT22;11079;51.092;3.458;2022-09-25T15:56:55;19.00;99.90
21834;DHT22;11079;51.092;3.458;2022-09-25T15:59:46;19.00;99.90
21834;DHT22;11079;51.092;3.458;2022-09-25T16:02:58;18.90;99.90
21834;DHT22;11079;51.092;3.458;2022-09-25T16:05:47;18.90;99.90
21834;DHT22;11079;51.092;3.458;2022-09-25T16:08:28;18.80;99.90
21834;DHT22;11079;51.092;3.458;2022-09-25T16:11:22;18.70;99.90
21834;DHT22;11079;51.092;3.458;2022-09-25T16:14:11;18.50;99.90
21834;DHT22;11079;51.092;3.458;2022-09-25T16:16:45;18.30;99.90
21834;DHT22;11079;51.092;3.458;2022-09-25T16:19:32;18.20;99.90
21834;DHT22;11079;51.092;3.458;2022-09-25T16:22:11;17.90;99.90
21834;DHT22;11079;51.092;3.458;2022-09-25T16:24:40;17.90;99.90
21834;DHT22;11079;51.092;3.458;2022-09-25T16:27:31;17.80;99.90
21834;DHT22;11079;51.092;3.458;2022-09-25T16:29:59;17.70;99.90
21834;DHT22;11079;51.092;3.458;2022-09-25T16:32:26;17.70;99.90
21834;DHT22;11079;51.092;3.458;2022-09-25T16:34:59;17.70;99.90
21834;DHT22;11079;51.092;3.458;2022-09-25T16:37:32;17.60;99.90
21834;DHT22;11079;51.092;3.458;2022-09-25T16:42:44;17.50;99.90
21834;DHT22;11079;51.092;3.458;2022-09-25T16:45:26;17.50;99.90
21834;DHT22;11079;51.092;3.458;2022-09-25T16:47:55;17.40;99.90
21834;DHT22;11079;51.092;3.458;2022-09-25T16:50:24;17.40;99.90
21834;DHT22;11079;51.092;3.458;2022-09-25T16:52:50;17.40;99.90
21834;DHT22;11079;51.092;3.458;2022-09-25T16:55:24;17.30;99.90
21834;DHT22;11079;51.092;3.458;2022-09-25T16:57:52;17.20;99.90
21834;DHT22;11079;51.092;3.458;2022-09-25T17:00:22;17.30;99.90
21834;DHT22;11079;51.092;3.458;2022-09-25T17:02:48;17.50;99.90
21834;DHT22;11079;51.092;3.458;2022-09-25T17:05:23;17.50;99.90
21834;DHT22;11079;51.092;3.458;2022-09-25T17:07:56;17.50;99.90
21834;DHT22;11079;51.092;3.458;2022-09-25T17:10:24;17.50;99.90
21834;DHT22;11079;51.092;3.458;2022-09-25T17:12:52;17.50;99.90
21834;DHT22;11079;51.092;3.458;2022-09-25T17:15:31;17.40;99.90
21834;DHT22;11079;51.092;3.458;2022-09-25T17:17:57;17.20;99.90
21834;DHT22;11079;51.092;3.458;2022-09-25T17:20:25;17.20;99.90
21834;DHT22;11079;51.092;3.458;2022-09-25T17:26:16;17.00;99.90
21834;DHT22;11079;51.092;3.458;2022-09-25T17:28:43;16.80;99.90
21834;DHT22;11079;51.092;3.458;2022-09-25T17:31:15;16.60;99.90
21834;DHT22;11079;51.092;3.458;2022-09-25T17:36:29;16.40;99.90
21834;DHT22;11079;51.092;3.458;2022-09-25T17:38:57;16.40;99.90
21834;DHT22;11079;51.092;3.458;2022-09-25T17:41:29;16.00;99.90
21834;DHT22;11079;51.092;3.458;2022-09-25T17:43:55;16.10;99.90
21834;DHT22;11079;51.092;3.458;2022-09-25T17:46:31;16.00;99.90
21834;DHT22;11079;51.092;3.458;2022-09-25T17:49:00;15.90;99.90
21834;DHT22;11079;51.092;3.458;2022-09-25T17:51:27;15.80;99.90
21834;DHT22;11079;51.092;3.458;2022-09-25T17:53:54;15.80;99.90
21834;DHT22;11079;51.092;3.458;2022-09-25T17:56:42;15.80;99.90
21834;DHT22;11079;51.092;3.458;2022-09-25T17:59:12;15.70;99.90
21834;DHT22;11079;51.092;3.458;2022-09-25T18:01:38;15.80;99.90
21834;DHT22;11079;51.092;3.458;2022-09-25T18:04:38;15.80;99.90
21834;DHT22;11079;51.092;3.458;2022-09-25T18:07:04;15.80;99.90
21834;DHT22;11079;51.092;3.458;2022-09-25T18:09:31;15.80;99.90
21834;DHT22;11079;51.092;3.458;2022-09-25T18:11:58;15.70;99.90
21834;DHT22;11079;51.092;3.458;2022-09-25T18:14:27;15.60;99.90
21834;DHT22;11079;51.092;3.458;2022-09-25T18:16:56;15.50;99.90
21834;DHT22;11079;51.092;3.458;2022-09-25T18:19:21;15.60;99.90
21834;DHT22;11079;51.092;3.458;2022-09-25T18:22:05;15.50;99.90
21834;DHT22;11079;51.092;3.458;2022-09-25T18:24:50;15.60;99.90
21834;DHT22;11079;51.092;3.458;2022-09-25T18:27:27;15.70;99.90
21834;DHT22;11079;51.092;3.458;2022-09-25T18:29:54;15.70;99.90
21834;DHT22;11079;51.092;3.458;2022-09-25T18:32:20;15.50;99.90
21834;DHT22;11079;51.092;3.458;2022-09-25T18:34:45;15.60;99.90
21834;DHT22;11079;51.092;3.458;2022-09-25T18:37:11;15.70;99.90
21834;DHT22;11079;51.092;3.458;2022-09-25T18:39:37;15.80;99.90